Impacts TAF Board
For situational awareness. Not to be used for flight planning purposes.
IDs:

KSEA - Seattle-Tacoma Intl, WA, US

Issued at 0528 UTC 22 Oct 2021
Updated at 0627 UTC 22 Oct 2021
Potential Impact None Slight Moderate High
Time<<22/19Z 22/20Z 22/21Z 22/22Z 22/23Z 23/00Z 23/01Z 23/02Z 23/03Z 23/04Z 23/05Z 23/06Z 23/07Z>>
Type PRVL PRVL PRVL PRVL PRVL PRVL PRVL PRVL PRVL PRVL PRVL PRVL PRVL
VIS >6 >6 >6 >6 >6 >6 >6 >6 >6 >6 >6 >6 >6
CIG 30 30 30 30 30 30 30 35 35 35 35 35 35
Cover OVC OVC OVC OVC OVC OVC OVC BKN BKN BKN BKN BKN BKN
FltCat MVFR MVFR MVFR MVFR MVFR MVFR MVFR VFR VFR VFR VFR VFR VFR
WX VCSH VCSH VCSH VCSH VCSH VCSH VCSH VCSH VCSH VCSH VCSH VCSH VCSH
WDir 190 190 190 190 190 190 190 200 200 200 200 200 200
WSpd 7 7 7 7 7 7 7 7 7 7 7 7 7
WGst -- -- -- -- -- -- -- -- -- -- -- -- --
Raw TAF
KSEA 220528Z 2206/2312 15008KT 4SM RA BR SCT015 OVC025
  FM220700 17006KT 6SM -RA BR OVC020
  FM221100 17006KT P6SM -SHRA BKN025 OVC035
  FM221900 19007KT P6SM VCSH BKN030 OVC050
  FM230200 20007KT P6SM VCSH BKN035
  FM231000 16007KT P6SM -RA OVC030


METAR Board
Radar Display
Forecast Discussion
For situational awareness. Not to be used for flight planning purposes.